createdAt,value
2023-03-15T00:00:42.373Z,0.90
2023-03-15T00:03:30.746Z,0.85
2023-03-15T00:06:18.943Z,1.10
2023-03-15T00:09:07.054Z,0.80
2023-03-15T00:11:56.480Z,0.73
2023-03-15T00:14:44.622Z,1.10
2023-03-15T00:17:34.693Z,0.90
2023-03-15T00:20:22.753Z,1.00
2023-03-15T00:23:11.086Z,0.75
2023-03-15T00:25:59.125Z,1.27
2023-03-15T00:28:48.904Z,0.70
2023-03-15T00:31:37.143Z,1.10
2023-03-15T00:34:26.536Z,0.70
2023-03-15T00:37:14.566Z,0.73
2023-03-15T00:40:03.661Z,0.57
2023-03-15T00:42:52.333Z,1.00
2023-03-15T00:45:41.777Z,1.23
2023-03-15T00:48:30.081Z,0.93
2023-03-15T00:51:21.158Z,1.05
2023-03-15T00:54:13.736Z,0.90
2023-03-15T00:57:02.357Z,0.85
2023-03-15T00:59:53.163Z,0.63
2023-03-15T01:02:42.954Z,0.87
2023-03-15T01:05:31.297Z,0.65
2023-03-15T01:08:19.377Z,0.70
2023-03-15T01:11:09.866Z,0.50
2023-03-15T01:13:59.959Z,0.82
2023-03-15T01:16:48.016Z,0.60
2023-03-15T01:19:37.398Z,0.73
2023-03-15T01:22:25.502Z,0.80
2023-03-15T01:25:13.582Z,0.73
2023-03-15T01:28:01.937Z,0.40
2023-03-15T01:30:51.078Z,0.90
2023-03-15T01:33:39.132Z,0.60
2023-03-15T01:36:28.882Z,0.70
2023-03-15T01:39:16.927Z,0.55
2023-03-15T01:42:05.338Z,0.60
2023-03-15T01:44:56.143Z,0.77
2023-03-15T01:47:44.159Z,0.50
2023-03-15T01:50:32.213Z,0.93
2023-03-15T01:53:22.534Z,0.70
2023-03-15T01:56:11.571Z,0.85
2023-03-15T01:59:01.897Z,0.70
2023-03-15T02:01:50.375Z,0.77
2023-03-15T02:04:46.672Z,0.80
2023-03-15T02:07:35.390Z,0.70
2023-03-15T02:10:30.101Z,0.73
2023-03-15T02:13:22.720Z,0.83
2023-03-15T02:16:11.170Z,0.60
2023-03-15T02:18:59.551Z,0.85
2023-03-15T02:21:57.141Z,0.60
2023-03-15T02:24:54.023Z,1.00
2023-03-15T02:27:44.689Z,1.10
2023-03-15T02:30:34.293Z,1.10
2023-03-15T02:33:26.136Z,1.10
2023-03-15T02:36:19.144Z,1.00
2023-03-15T02:39:17.454Z,1.10
2023-03-15T02:42:06.267Z,1.00
2023-03-15T02:44:57.550Z,1.02
2023-03-15T02:47:47.053Z,1.10
2023-03-15T02:50:35.210Z,0.70
2023-03-15T02:53:23.786Z,0.98
2023-03-15T02:56:11.796Z,0.90
2023-03-15T02:58:59.961Z,0.90
2023-03-15T03:01:49.612Z,0.95
2023-03-15T03:04:37.784Z,0.70
2023-03-15T03:07:25.817Z,1.13
2023-03-15T03:10:16.574Z,0.93
2023-03-15T03:13:04.770Z,0.80
2023-03-15T03:15:58.572Z,0.70
2023-03-15T03:18:48.065Z,0.60
2023-03-15T03:21:36.625Z,0.70
2023-03-15T03:24:25.868Z,0.90
2023-03-15T03:27:15.021Z,0.63
2023-03-15T03:30:03.222Z,0.70
2023-03-15T03:32:51.639Z,1.00
2023-03-15T03:35:41.754Z,0.70
2023-03-15T03:38:29.735Z,0.63
2023-03-15T03:41:17.793Z,0.63
2023-03-15T03:44:06.218Z,1.00
2023-03-15T03:46:54.256Z,1.00
2023-03-15T03:49:42.345Z,0.98
2023-03-15T03:52:31.922Z,0.90
2023-03-15T03:55:19.954Z,1.00
2023-03-15T03:58:07.972Z,0.65
2023-03-15T04:00:56.052Z,1.00
2023-03-15T04:03:44.812Z,0.90
2023-03-15T04:06:32.879Z,1.00
2023-03-15T04:09:25.050Z,0.82
2023-03-15T04:12:13.851Z,0.70
2023-03-15T04:15:02.145Z,1.10
2023-03-15T04:17:50.370Z,0.70
2023-03-15T04:20:38.387Z,1.07
2023-03-15T04:23:26.577Z,0.88
2023-03-15T04:26:16.041Z,0.68
2023-03-15T04:29:04.272Z,0.90
2023-03-15T04:31:52.388Z,0.90
2023-03-15T04:34:40.662Z,1.03
2023-03-15T04:37:28.767Z,1.10
2023-03-15T04:40:17.347Z,0.95
2023-03-15T04:43:07.122Z,0.60
2023-03-15T04:45:55.132Z,1.10
2023-03-15T04:48:43.214Z,1.00
2023-03-15T04:51:31.525Z,1.08
2023-03-15T04:54:19.547Z,1.00
2023-03-15T04:57:07.742Z,0.90
2023-03-15T04:59:57.488Z,0.95
2023-03-15T05:02:47.509Z,1.13
2023-03-15T05:05:35.662Z,0.98
2023-03-15T05:08:23.817Z,1.20
2023-03-15T05:11:12.351Z,1.13
2023-03-15T05:14:00.356Z,1.10
2023-03-15T05:16:55.320Z,0.93
2023-03-15T05:19:43.342Z,0.93
2023-03-15T05:22:31.319Z,1.20
2023-03-15T05:25:19.516Z,0.95
2023-03-15T05:28:07.637Z,1.38
2023-03-15T05:30:55.715Z,0.93
2023-03-15T05:33:46.979Z,0.90
2023-03-15T05:36:35.589Z,0.93
2023-03-15T05:39:24.087Z,1.10
2023-03-15T05:42:13.368Z,0.93
2023-03-15T05:45:01.673Z,1.47
2023-03-15T05:47:49.674Z,1.08
2023-03-15T05:50:39.078Z,1.00
2023-03-15T05:53:27.128Z,1.40
2023-03-15T05:56:15.232Z,0.93
2023-03-15T05:59:04.530Z,0.87
2023-03-15T06:01:52.925Z,1.10
2023-03-15T06:04:41.372Z,1.40
2023-03-15T06:07:31.077Z,1.20
2023-03-15T06:10:19.477Z,1.45
2023-03-15T06:13:07.670Z,1.20
2023-03-15T06:15:55.664Z,1.30
2023-03-15T06:18:43.719Z,1.23
2023-03-15T06:21:31.830Z,1.27
2023-03-15T06:24:21.246Z,1.33
2023-03-15T06:27:09.625Z,1.60
2023-03-15T06:29:58.440Z,2.22
2023-03-15T06:32:47.286Z,1.55
2023-03-15T06:35:35.472Z,1.20
2023-03-15T06:38:23.515Z,1.30
2023-03-15T06:41:15.531Z,1.50
2023-03-15T06:44:03.713Z,1.55
2023-03-15T06:46:51.737Z,1.45
2023-03-15T06:49:40.084Z,1.70
2023-03-15T06:52:28.626Z,1.60
2023-03-15T06:55:18.491Z,2.00
2023-03-15T06:58:07.995Z,1.45
2023-03-15T07:00:56.365Z,1.90
2023-03-15T07:03:44.376Z,1.70
2023-03-15T07:06:32.366Z,1.70
2023-03-15T07:09:20.763Z,1.70
2023-03-15T07:12:10.790Z,1.58
2023-03-15T07:15:00.149Z,1.55
2023-03-15T07:17:48.348Z,1.27
2023-03-15T07:20:37.771Z,1.38
2023-03-15T07:23:26.275Z,1.60
2023-03-15T07:26:14.661Z,1.70
2023-03-15T07:29:02.722Z,1.27
2023-03-15T07:31:52.895Z,1.45
2023-03-15T07:34:41.082Z,0.90
2023-03-15T07:37:29.316Z,0.90
2023-03-15T07:40:17.374Z,1.42
2023-03-15T07:43:06.600Z,1.10
2023-03-15T07:45:54.792Z,1.15
2023-03-15T07:48:44.294Z,1.00
2023-03-15T07:51:32.272Z,1.20
2023-03-15T07:54:20.940Z,1.00
2023-03-15T07:57:09.252Z,1.13
2023-03-15T07:59:58.609Z,0.80
2023-03-15T08:02:46.767Z,0.80
2023-03-15T08:05:36.907Z,1.00
2023-03-15T08:08:25.067Z,0.82
2023-03-15T08:11:13.089Z,1.00
2023-03-15T08:14:01.161Z,0.95
2023-03-15T08:16:49.345Z,1.08
2023-03-15T08:19:37.401Z,0.80
2023-03-15T08:22:27.193Z,1.00
2023-03-15T08:25:17.295Z,1.20
2023-03-15T08:28:05.961Z,1.48
2023-03-15T08:30:56.382Z,0.90
2023-03-15T08:33:44.459Z,1.40
2023-03-15T08:36:33.301Z,1.42
2023-03-15T08:39:24.037Z,1.48
2023-03-15T08:42:12.405Z,1.95
2023-03-15T08:45:02.001Z,2.08
2023-03-15T08:47:50.103Z,1.73
2023-03-15T08:50:38.425Z,1.60
2023-03-15T08:53:26.538Z,1.40
2023-03-15T08:56:16.053Z,1.52
2023-03-15T08:59:04.098Z,1.45
2023-03-15T09:01:52.197Z,1.30
2023-03-15T09:04:40.398Z,1.42
2023-03-15T09:07:28.839Z,1.20
2023-03-15T09:10:18.208Z,1.15
2023-03-15T09:13:07.887Z,0.90
2023-03-15T09:15:57.452Z,1.30
2023-03-15T09:18:45.549Z,1.38
2023-03-15T09:21:33.570Z,1.00
2023-03-15T09:24:21.707Z,1.23
2023-03-15T09:27:11.757Z,1.05
2023-03-15T09:30:01.305Z,1.00
2023-03-15T09:32:50.021Z,1.20
2023-03-15T09:35:38.184Z,0.80
2023-03-15T09:38:26.783Z,1.10
2023-03-15T09:41:21.954Z,1.00
2023-03-15T09:44:24.639Z,1.10
2023-03-15T09:47:29.358Z,1.20
2023-03-15T09:50:23.369Z,1.25
2023-03-15T09:53:17.271Z,1.23
2023-03-15T09:56:12.991Z,0.93
2023-03-15T09:59:03.062Z,1.20
2023-03-15T10:01:56.516Z,1.00
2023-03-15T10:04:48.728Z,0.90
2023-03-15T10:07:37.066Z,1.00
2023-03-15T10:10:33.218Z,1.00
2023-03-15T10:13:47.245Z,0.80
2023-03-15T10:16:41.873Z,0.82
2023-03-15T10:19:36.918Z,1.00
2023-03-15T10:22:30.671Z,0.82
2023-03-15T10:25:23.512Z,0.73
2023-03-15T10:28:15.957Z,0.60
2023-03-15T10:31:25.623Z,0.77
2023-03-15T10:34:21.812Z,1.00
2023-03-15T10:37:10.918Z,1.02
2023-03-15T10:40:01.013Z,1.02
2023-03-15T10:42:49.476Z,1.10
2023-03-15T10:45:38.410Z,1.00
2023-03-15T10:48:26.561Z,1.20
2023-03-15T10:51:25.922Z,1.20
2023-03-15T10:54:16.554Z,1.30
2023-03-15T10:57:14.506Z,1.20
2023-03-15T11:00:09.582Z,1.98
2023-03-15T11:03:06.993Z,3.67
2023-03-15T11:05:57.800Z,1.50
2023-03-15T11:08:45.881Z,1.90
2023-03-15T11:11:50.358Z,1.80
2023-03-15T11:14:43.654Z,1.80
2023-03-15T11:17:34.757Z,1.55
2023-03-15T11:20:30.746Z,1.45
2023-03-15T11:23:23.653Z,1.58
2023-03-15T11:26:29.346Z,1.80
2023-03-15T11:29:23.866Z,1.40
2023-03-15T11:32:17.654Z,1.50
2023-03-15T11:35:09.267Z,1.90
2023-03-15T11:38:14.445Z,1.40
2023-03-15T11:41:11.925Z,1.47
2023-03-15T11:44:12.654Z,1.60
2023-03-15T11:47:14.297Z,1.45
2023-03-15T11:50:04.122Z,1.13
2023-03-15T11:52:53.563Z,1.35
2023-03-15T11:55:41.649Z,1.10
2023-03-15T11:58:32.352Z,1.50
2023-03-15T12:01:27.628Z,1.00
2023-03-15T12:04:43.134Z,0.90
2023-03-15T12:07:38.902Z,1.40
2023-03-15T12:10:47.625Z,1.20
2023-03-15T12:13:35.886Z,1.20
2023-03-15T12:16:28.350Z,1.40
2023-03-15T12:19:19.082Z,1.27
2023-03-15T12:22:16.873Z,1.15
2023-03-15T12:25:14.051Z,1.20
2023-03-15T12:28:08.788Z,1.30
2023-03-15T12:30:59.369Z,1.42
2023-03-15T12:33:50.623Z,1.10
2023-03-15T12:36:41.408Z,1.30
2023-03-15T12:39:43.424Z,1.40
2023-03-15T12:43:08.878Z,1.05
2023-03-15T12:45:58.689Z,1.02
2023-03-15T12:49:12.892Z,1.00
2023-03-15T12:52:04.290Z,1.10
2023-03-15T12:54:56.555Z,1.20
2023-03-15T12:57:50.322Z,1.00
2023-03-15T13:00:41.466Z,1.13
2023-03-15T13:03:34.732Z,1.00
2023-03-15T13:06:33.021Z,0.93
2023-03-15T13:09:38.123Z,1.00
2023-03-15T13:12:32.126Z,1.10
2023-03-15T13:15:24.117Z,0.93
2023-03-15T13:18:18.046Z,0.98
2023-03-15T13:21:15.596Z,0.82
2023-03-15T13:24:14.104Z,0.90
2023-03-15T13:27:08.792Z,0.80
2023-03-15T13:29:57.608Z,0.90
2023-03-15T13:32:45.762Z,0.90
2023-03-15T13:35:34.506Z,1.00
2023-03-15T13:38:32.626Z,1.10
2023-03-15T13:41:23.021Z,0.90
2023-03-15T13:44:19.192Z,0.88
2023-03-15T13:47:07.395Z,1.08
2023-03-15T13:49:55.401Z,0.90
2023-03-15T13:52:44.610Z,1.03
2023-03-15T13:55:37.180Z,1.00
2023-03-15T13:58:26.575Z,1.00
2023-03-15T14:01:16.088Z,0.93
2023-03-15T14:04:08.397Z,1.02
2023-03-15T14:07:17.165Z,1.23
2023-03-15T14:10:24.427Z,1.30
2023-03-15T14:13:24.950Z,1.40
2023-03-15T14:16:17.406Z,1.38
2023-03-15T14:19:17.909Z,1.05
2023-03-15T14:22:15.580Z,0.90
2023-03-15T14:25:05.120Z,1.00
2023-03-15T14:27:53.511Z,0.90
2023-03-15T14:30:43.781Z,1.13
2023-03-15T14:33:34.583Z,1.25
2023-03-15T14:36:25.808Z,1.23
2023-03-15T14:39:19.823Z,1.45
2023-03-15T14:42:11.561Z,1.13
2023-03-15T14:44:59.695Z,1.00
2023-03-15T14:47:57.681Z,1.20
2023-03-15T14:50:48.957Z,1.07
2023-03-15T14:53:38.679Z,1.30
2023-03-15T14:56:26.788Z,1.08
2023-03-15T14:59:14.892Z,1.20
2023-03-15T15:02:03.189Z,1.30
2023-03-15T15:04:52.828Z,1.40
2023-03-15T15:07:41.429Z,1.10
2023-03-15T15:10:29.682Z,1.30
2023-03-15T15:13:20.805Z,1.58
2023-03-15T15:16:09.930Z,1.55
2023-03-15T15:18:58.051Z,1.40
2023-03-15T15:21:47.635Z,1.30
2023-03-15T15:24:35.629Z,1.50
2023-03-15T15:27:23.709Z,1.55
2023-03-15T15:30:16.520Z,1.60
2023-03-15T15:33:04.893Z,1.50
2023-03-15T15:35:54.836Z,1.70
2023-03-15T15:38:44.341Z,1.52
2023-03-15T15:41:33.321Z,1.65
2023-03-15T15:44:23.873Z,1.42
2023-03-15T15:47:12.259Z,1.67
2023-03-15T15:50:00.242Z,1.83
2023-03-15T15:52:50.931Z,1.80
2023-03-15T15:55:40.458Z,1.90
2023-03-15T15:58:28.565Z,1.98
2023-03-15T16:01:17.554Z,2.00
2023-03-15T16:04:05.785Z,2.17
2023-03-15T16:06:56.995Z,2.10
2023-03-15T16:09:48.941Z,1.65
2023-03-15T16:12:38.309Z,1.60
2023-03-15T16:15:26.411Z,1.70
2023-03-15T16:18:14.535Z,2.20
2023-03-15T16:21:02.767Z,1.90
2023-03-15T16:23:56.332Z,2.20
2023-03-15T16:26:45.914Z,2.50
2023-03-15T16:29:38.348Z,2.87
2023-03-15T16:32:42.970Z,2.17
2023-03-15T16:35:33.929Z,2.60
2023-03-15T16:38:25.988Z,2.30
2023-03-15T16:41:16.528Z,2.40
2023-03-15T16:44:04.873Z,2.80
2023-03-15T16:46:54.470Z,3.00
2023-03-15T16:49:42.582Z,2.83
2023-03-15T16:52:32.681Z,2.75
2023-03-15T16:55:24.691Z,3.05
2023-03-15T16:58:17.997Z,3.10
2023-03-15T17:01:08.223Z,3.00
2023-03-15T17:03:58.182Z,3.03
2023-03-15T17:06:47.279Z,2.92
2023-03-15T17:09:35.640Z,3.20
2023-03-15T17:12:26.176Z,3.33
2023-03-15T17:15:14.593Z,3.83
2023-03-15T17:18:03.220Z,4.15
2023-03-15T17:20:53.293Z,3.95
2023-03-15T17:23:42.000Z,4.45
2023-03-15T17:26:32.201Z,4.70
2023-03-15T17:29:20.221Z,4.50
2023-03-15T17:32:12.137Z,4.40
2023-03-15T17:35:00.522Z,4.22
2023-03-15T17:37:51.671Z,4.30
2023-03-15T17:40:39.850Z,4.67
2023-03-15T17:43:27.942Z,4.53
2023-03-15T17:46:18.108Z,4.72
2023-03-15T17:49:07.159Z,4.50
2023-03-15T17:51:56.958Z,4.82
2023-03-15T17:54:47.023Z,4.80
2023-03-15T17:57:38.240Z,4.70
2023-03-15T18:00:27.684Z,4.72
2023-03-15T18:03:17.092Z,4.70
2023-03-15T18:06:05.326Z,5.07
2023-03-15T18:08:53.348Z,5.23
2023-03-15T18:11:44.009Z,4.85
2023-03-15T18:14:37.139Z,5.45
2023-03-15T18:17:25.503Z,5.05
2023-03-15T18:20:15.700Z,5.43
2023-03-15T18:23:05.165Z,5.40
2023-03-15T18:25:53.375Z,5.63
2023-03-15T18:28:43.613Z,5.68
2023-03-15T18:31:31.763Z,5.85
2023-03-15T18:34:21.972Z,5.05
2023-03-15T18:37:11.528Z,5.40
2023-03-15T18:39:59.539Z,5.47
2023-03-15T18:42:47.704Z,5.22
2023-03-15T18:45:37.528Z,5.13
2023-03-15T18:48:39.631Z,5.22
2023-03-15T18:51:28.996Z,5.10
2023-03-15T18:54:17.142Z,5.03
2023-03-15T18:57:06.148Z,5.30
2023-03-15T18:59:54.389Z,4.72
2023-03-15T19:02:46.492Z,4.93
2023-03-15T19:05:36.657Z,4.87
2023-03-15T19:08:24.684Z,4.95
2023-03-15T19:11:13.140Z,4.65
2023-03-15T19:14:01.626Z,4.88
2023-03-15T19:16:50.013Z,5.00
2023-03-15T19:19:39.614Z,5.97
2023-03-15T19:22:31.135Z,5.90
2023-03-15T19:25:19.666Z,5.22
2023-03-15T19:28:07.737Z,4.68
2023-03-15T19:30:55.844Z,4.63
2023-03-15T19:33:44.041Z,4.53
2023-03-15T19:36:33.519Z,4.38
2023-03-15T19:39:21.622Z,4.28
2023-03-15T19:42:09.990Z,4.50
2023-03-15T19:44:58.370Z,4.00
2023-03-15T19:47:47.117Z,4.23
2023-03-15T19:50:35.433Z,4.05
2023-03-15T19:53:25.592Z,4.18
2023-03-15T19:56:13.778Z,4.20
2023-03-15T19:59:01.904Z,4.07
2023-03-15T20:01:50.075Z,4.00
2023-03-15T20:04:38.341Z,4.18
2023-03-15T20:07:26.332Z,4.15
2023-03-15T20:10:15.874Z,4.10
2023-03-15T20:13:03.935Z,4.55
2023-03-15T20:15:51.980Z,4.50
2023-03-15T20:18:40.054Z,4.55
2023-03-15T20:21:29.394Z,4.57
2023-03-15T20:24:17.426Z,4.38
2023-03-15T20:27:06.897Z,4.57
2023-03-15T20:29:56.687Z,4.80
2023-03-15T20:32:45.334Z,4.78
2023-03-15T20:35:33.484Z,4.65
2023-03-15T20:38:22.829Z,4.75
2023-03-15T20:41:13.881Z,4.72
2023-03-15T20:44:03.354Z,4.60
2023-03-15T20:46:54.971Z,4.50
2023-03-15T20:49:43.277Z,4.50
2023-03-15T20:52:32.171Z,4.40
2023-03-15T20:55:21.128Z,4.43
2023-03-15T20:58:09.426Z,4.20
2023-03-15T21:01:06.015Z,4.03
2023-03-15T21:03:56.347Z,4.25
2023-03-15T21:06:44.726Z,3.88
2023-03-15T21:09:33.640Z,4.07
2023-03-15T21:12:22.006Z,4.00
2023-03-15T21:15:15.392Z,4.30
2023-03-15T21:18:05.416Z,4.05
2023-03-15T21:20:58.649Z,3.92
2023-03-15T21:23:47.006Z,3.92
2023-03-15T21:26:35.007Z,4.13
2023-03-15T21:29:23.557Z,3.90
2023-03-15T21:32:11.861Z,4.85
2023-03-15T21:35:01.617Z,4.40
2023-03-15T21:37:50.014Z,4.07
2023-03-15T21:40:38.368Z,4.23
2023-03-15T21:43:27.337Z,4.20
2023-03-15T21:46:15.426Z,4.40
2023-03-15T21:49:04.210Z,4.60
2023-03-15T21:51:53.650Z,4.13
2023-03-15T21:54:42.213Z,4.33
2023-03-15T21:57:30.392Z,4.40
2023-03-15T22:00:20.210Z,4.38
2023-03-15T22:03:08.370Z,4.65
2023-03-15T22:05:56.487Z,4.75
2023-03-15T22:08:45.901Z,4.43
2023-03-15T22:11:33.877Z,5.30
2023-03-15T22:14:22.429Z,4.63
2023-03-15T22:17:10.614Z,4.30
2023-03-15T22:19:58.819Z,4.65
2023-03-15T22:22:49.094Z,4.30
2023-03-15T22:25:40.454Z,4.60
2023-03-15T22:28:28.515Z,4.47
2023-03-15T22:31:16.725Z,4.90
2023-03-15T22:34:05.070Z,4.13
2023-03-15T22:36:53.119Z,4.60
2023-03-15T22:39:43.076Z,4.53
2023-03-15T22:42:32.581Z,4.75
2023-03-15T22:45:21.332Z,4.25
2023-03-15T22:48:09.391Z,4.63
2023-03-15T22:50:59.955Z,4.93
2023-03-15T22:53:48.123Z,4.70
2023-03-15T22:56:39.022Z,5.10
2023-03-15T22:59:30.317Z,4.05
2023-03-15T23:02:18.428Z,4.85
2023-03-15T23:05:07.143Z,4.20
2023-03-15T23:07:55.147Z,4.50
2023-03-15T23:10:43.429Z,4.28
2023-03-15T23:13:31.481Z,4.70
2023-03-15T23:16:21.120Z,4.15
2023-03-15T23:19:10.374Z,4.40
2023-03-15T23:21:58.413Z,4.40
2023-03-15T23:24:47.172Z,4.60
2023-03-15T23:27:35.648Z,4.80
2023-03-15T23:30:23.736Z,4.32
2023-03-15T23:33:13.477Z,5.50
2023-03-15T23:36:01.915Z,5.13
2023-03-15T23:38:50.127Z,4.57
2023-03-15T23:41:38.232Z,4.28
2023-03-15T23:44:26.371Z,4.50
2023-03-15T23:47:14.464Z,4.63
2023-03-15T23:50:04.027Z,4.45
2023-03-15T23:52:53.726Z,4.43
2023-03-15T23:55:41.783Z,4.53
2023-03-15T23:58:30.221Z,4.50
